North Norwich, New York
Current Conditions -  °F | °C
As of 7:35 AM on Thursday 23 Oct 2014 (Local Time) from KN03 Reporting Station
Overcast Overcast  
Wind Chill: 40°   Ceiling: 1200
Heat Index: 43°   Visibility: 10mi
Dew Point: 39°   Wind: 5mph
Humidity: 87%   Direction: 360°N
Pressure: 29.98"   Gusts: NA
Location:  42.62°N, 75.53°W
Report Text: KN03 231135Z AUTO 36004KT 10SM BKN012 OVC017 06/04 A2998 RMK AO2
Loading
Personal Weather Stations






























Interactive Weather Map
Tropical Storm Tracking
New forecast layout! Learn more

10-Day Weather Forecast

Advertisements
Track Severe Weather on mobile